createdAt,value
2018-12-13T00:00:56.777Z,99.90
2018-12-13T00:03:28.645Z,99.90
2018-12-13T00:06:01.312Z,99.90
2018-12-13T00:08:33.389Z,99.90
2018-12-13T00:11:05.484Z,99.90
2018-12-13T00:13:37.588Z,99.90
2018-12-13T00:16:09.821Z,99.90
2018-12-13T00:18:41.896Z,99.90
2018-12-13T00:21:13.864Z,99.90
2018-12-13T00:23:45.742Z,99.90
2018-12-13T00:26:17.871Z,99.90
2018-12-13T00:28:50.800Z,99.90
2018-12-13T00:31:22.672Z,99.90
2018-12-13T00:33:55.280Z,99.90
2018-12-13T00:36:25.976Z,99.90
2018-12-13T00:38:58.136Z,99.90
2018-12-13T00:41:30.022Z,99.90
2018-12-13T00:44:02.101Z,99.90
2018-12-13T00:46:36.415Z,99.90
2018-12-13T00:49:08.716Z,99.90
2018-12-13T00:51:39.648Z,99.90
2018-12-13T00:54:11.808Z,99.90
2018-12-13T00:56:43.935Z,99.90
2018-12-13T00:59:14.584Z,99.90
2018-12-13T01:01:46.920Z,99.90
2018-12-13T01:04:19.747Z,99.90
2018-12-13T01:06:55.688Z,99.90
2018-12-13T01:09:26.244Z,99.90
2018-12-13T01:11:59.198Z,99.90
2018-12-13T01:14:32.060Z,99.90
2018-12-13T01:17:04.763Z,99.90
2018-12-13T01:19:37.523Z,99.90
2018-12-13T01:22:11.802Z,99.90
2018-12-13T01:24:44.418Z,99.90
2018-12-13T01:27:16.682Z,99.90
2018-12-13T01:29:49.081Z,99.90
2018-12-13T01:39:50.206Z,99.90
2018-12-13T01:42:20.723Z,99.90
2018-12-13T01:44:53.643Z,99.90
2018-12-13T01:47:25.647Z,99.90
2018-12-13T01:49:58.511Z,99.90
2018-12-13T01:52:30.641Z,99.90
2018-12-13T01:55:03.646Z,99.90
2018-12-13T01:57:35.880Z,99.90
2018-12-13T02:00:09.076Z,99.90
2018-12-13T02:02:39.691Z,99.90
2018-12-13T02:05:11.728Z,99.90
2018-12-13T02:07:41.728Z,99.90
2018-12-13T02:10:14.068Z,99.90
2018-12-13T02:12:46.151Z,99.90
2018-12-13T02:15:18.084Z,99.90
2018-12-13T02:17:50.203Z,99.90
2018-12-13T02:20:22.327Z,99.90
2018-12-13T02:22:54.652Z,99.90
2018-12-13T02:25:25.367Z,99.90
2018-12-13T02:27:57.604Z,99.90
2018-12-13T02:30:29.559Z,99.90
2018-12-13T02:33:01.772Z,99.90
2018-12-13T02:35:35.927Z,99.90
2018-12-13T02:40:38.525Z,99.90
2018-12-13T02:43:11.220Z,99.90
2018-12-13T02:45:45.732Z,99.90
2018-12-13T02:48:18.473Z,99.90
2018-12-13T02:50:50.360Z,99.90
2018-12-13T02:53:20.488Z,99.90
2018-12-13T02:55:50.819Z,99.90
2018-12-13T02:58:23.618Z,99.90
2018-12-13T03:00:56.511Z,99.90
2018-12-13T03:03:28.463Z,99.90
2018-12-13T03:06:00.624Z,99.90
2018-12-13T03:08:33.350Z,99.90
2018-12-13T03:11:05.349Z,99.90
2018-12-13T03:13:37.419Z,99.90
2018-12-13T03:16:09.449Z,99.90
2018-12-13T03:18:41.671Z,99.90
2018-12-13T03:21:14.466Z,99.90
2018-12-13T03:23:47.114Z,99.90
2018-12-13T03:26:19.390Z,99.90
2018-12-13T03:28:51.269Z,99.90
2018-12-13T03:31:23.433Z,99.90
2018-12-13T03:33:55.565Z,99.90
2018-12-13T03:36:27.899Z,99.90
2018-12-13T03:41:29.734Z,99.90
2018-12-13T03:44:01.698Z,99.90
2018-12-13T03:46:33.884Z,99.90
2018-12-13T03:49:06.343Z,99.90
2018-12-13T03:51:39.248Z,99.90
2018-12-13T03:54:11.888Z,99.90
2018-12-13T03:56:44.313Z,99.90
2018-12-13T03:59:16.689Z,99.90
2018-12-13T04:01:49.179Z,99.90
2018-12-13T04:04:21.104Z,99.90
2018-12-13T04:06:53.307Z,99.90
2018-12-13T04:09:25.249Z,99.90
2018-12-13T04:11:56.323Z,99.90
2018-12-13T04:14:29.187Z,99.90
2018-12-13T04:17:02.123Z,99.90
2018-12-13T04:19:35.094Z,99.90
2018-12-13T04:22:07.248Z,99.90
2018-12-13T04:24:39.476Z,99.90
2018-12-13T04:27:11.571Z,99.90
2018-12-13T04:29:43.843Z,99.90
2018-12-13T04:32:15.881Z,99.90
2018-12-13T04:34:48.002Z,99.90
2018-12-13T04:37:20.988Z,99.90
2018-12-13T04:42:22.850Z,99.90
2018-12-13T04:44:54.851Z,99.90
2018-12-13T04:47:29.207Z,99.90
2018-12-13T04:50:01.770Z,99.90
2018-12-13T04:52:33.964Z,99.90
2018-12-13T04:55:06.844Z,99.90
2018-12-13T04:57:39.080Z,99.90
2018-12-13T05:00:11.745Z,99.90
2018-12-13T05:02:44.647Z,99.90
2018-12-13T05:05:19.719Z,99.90
2018-12-13T05:07:52.058Z,99.90
2018-12-13T05:10:35.808Z,99.90
2018-12-13T05:13:06.734Z,99.90
2018-12-13T05:15:39.645Z,99.90
2018-12-13T05:18:11.680Z,99.90
2018-12-13T05:20:44.430Z,99.90
2018-12-13T05:23:16.763Z,99.90
2018-12-13T05:25:47.127Z,99.90
2018-12-13T05:28:20.209Z,99.90
2018-12-13T05:30:52.807Z,99.90
2018-12-13T05:33:24.869Z,99.90
2018-12-13T05:35:56.907Z,99.90
2018-12-13T05:38:29.593Z,99.90
2018-12-13T05:40:59.764Z,99.90
2018-12-13T05:43:31.965Z,99.90
2018-12-13T05:46:05.452Z,99.90
2018-12-13T05:48:37.762Z,99.90
2018-12-13T05:51:10.620Z,99.90
2018-12-13T05:53:43.685Z,99.90
2018-12-13T05:56:16.739Z,99.90
2018-12-13T05:58:52.060Z,99.90
2018-12-13T06:01:24.776Z,99.90
2018-12-13T06:03:57.687Z,99.90
2018-12-13T06:06:32.206Z,99.90
2018-12-13T06:09:02.812Z,99.90
2018-12-13T06:11:34.927Z,99.90
2018-12-13T06:14:06.996Z,99.90
2018-12-13T06:16:39.819Z,99.90
2018-12-13T06:19:12.131Z,99.90
2018-12-13T06:21:45.080Z,99.90
2018-12-13T06:24:17.112Z,99.90
2018-12-13T06:26:49.542Z,99.90
2018-12-13T06:29:22.504Z,99.90
2018-12-13T06:31:56.454Z,99.90
2018-12-13T06:34:28.768Z,99.90
2018-12-13T06:37:00.861Z,99.90
2018-12-13T06:39:33.860Z,99.90
2018-12-13T06:42:06.886Z,99.90
2018-12-13T06:44:39.064Z,99.90
2018-12-13T06:47:13.209Z,99.90
2018-12-13T06:49:45.219Z,99.90
2018-12-13T06:52:17.506Z,99.90
2018-12-13T06:54:51.156Z,99.90
2018-12-13T06:57:21.849Z,99.90
2018-12-13T06:59:54.781Z,99.90
2018-12-13T07:02:26.987Z,99.90
2018-12-13T07:04:59.898Z,99.90
2018-12-13T07:07:32.183Z,99.90
2018-12-13T07:10:04.717Z,99.90
2018-12-13T07:12:37.430Z,99.90
2018-12-13T07:15:09.956Z,99.90
2018-12-13T07:17:42.469Z,99.90
2018-12-13T07:20:14.697Z,99.90
2018-12-13T07:22:46.774Z,99.90
2018-12-13T07:25:18.830Z,99.90
2018-12-13T07:27:50.907Z,99.90
2018-12-13T07:30:23.821Z,99.90
2018-12-13T07:32:56.571Z,99.90
2018-12-13T07:35:29.368Z,99.90
2018-12-13T07:38:01.551Z,99.90
2018-12-13T07:40:34.576Z,99.90
2018-12-13T07:48:03.225Z,99.90
2018-12-13T07:50:35.383Z,99.90
2018-12-13T07:53:08.302Z,99.90
2018-12-13T07:55:41.031Z,99.90
2018-12-13T07:58:13.397Z,99.90
2018-12-13T08:00:46.128Z,99.90
2018-12-13T08:03:18.379Z,99.90
2018-12-13T08:05:51.114Z,99.90
2018-12-13T08:08:23.341Z,99.90
2018-12-13T08:10:55.392Z,99.90
2018-12-13T08:13:27.662Z,99.90
2018-12-13T08:15:59.802Z,99.90
2018-12-13T08:18:32.495Z,99.90
2018-12-13T08:21:05.395Z,99.90
2018-12-13T08:23:37.584Z,99.90
2018-12-13T08:26:09.524Z,99.90
2018-12-13T08:28:41.398Z,99.90
2018-12-13T08:31:13.848Z,99.90
2018-12-13T08:33:46.104Z,99.50
2018-12-13T08:36:18.208Z,99.40
2018-12-13T08:38:50.221Z,99.30
2018-12-13T08:41:23.217Z,99.30
2018-12-13T08:43:56.885Z,99.20
2018-12-13T08:46:29.186Z,99.20
2018-12-13T08:49:03.035Z,99.10
2018-12-13T08:51:35.423Z,99.10
2018-12-13T08:54:07.838Z,99.00
2018-12-13T08:56:39.856Z,98.70
2018-12-13T08:59:11.999Z,98.70
2018-12-13T09:01:44.816Z,98.70
2018-12-13T09:04:16.727Z,98.50
2018-12-13T09:06:49.135Z,98.70
2018-12-13T09:09:21.483Z,98.60
2018-12-13T09:11:55.302Z,98.10
2018-12-13T09:14:27.499Z,98.00
2018-12-13T09:16:58.476Z,98.10
2018-12-13T09:19:31.316Z,98.00
2018-12-13T09:22:04.335Z,97.80
2018-12-13T09:24:37.033Z,97.70
2018-12-13T09:27:11.422Z,97.90
2018-12-13T09:29:44.195Z,97.80
2018-12-13T09:32:17.534Z,97.00
2018-12-13T09:34:50.182Z,96.80
2018-12-13T09:37:22.305Z,96.40
2018-12-13T09:39:54.511Z,96.30
2018-12-13T09:42:26.710Z,96.00
2018-12-13T09:44:58.875Z,95.80
2018-12-13T09:47:31.392Z,95.50
2018-12-13T09:52:32.639Z,95.10
2018-12-13T09:55:05.826Z,94.90
2018-12-13T09:57:38.407Z,94.70
2018-12-13T10:00:11.980Z,94.80
2018-12-13T10:02:44.334Z,94.00
2018-12-13T10:05:19.358Z,94.50
2018-12-13T10:07:52.622Z,93.70
2018-12-13T10:10:25.611Z,93.70
2018-12-13T10:12:57.695Z,92.50
2018-12-13T10:15:32.109Z,91.60
2018-12-13T10:18:06.925Z,91.20
2018-12-13T10:20:39.539Z,90.20
2018-12-13T10:23:11.641Z,90.00
2018-12-13T10:25:43.756Z,89.20
2018-12-13T10:28:16.687Z,86.80
2018-12-13T10:30:48.657Z,84.30
2018-12-13T10:33:21.010Z,83.60
2018-12-13T10:35:53.867Z,85.60
2018-12-13T10:38:25.942Z,80.90
2018-12-13T10:40:58.029Z,82.00
2018-12-13T10:43:30.108Z,80.20
2018-12-13T10:46:02.172Z,78.70
2018-12-13T10:48:35.117Z,76.40
2018-12-13T10:51:07.485Z,76.00
2018-12-13T10:53:42.769Z,74.30
2018-12-13T10:56:13.465Z,76.80
2018-12-13T10:58:45.545Z,72.90
2018-12-13T11:01:20.992Z,75.00
2018-12-13T11:03:53.659Z,74.60
2018-12-13T11:06:26.059Z,72.70
2018-12-13T11:08:59.584Z,73.10
2018-12-13T11:11:31.891Z,72.00
2018-12-13T11:14:03.987Z,71.10
2018-12-13T11:16:37.019Z,69.60
2018-12-13T11:19:09.071Z,69.30
2018-12-13T11:21:41.212Z,71.70
2018-12-13T11:24:12.360Z,70.30
2018-12-13T11:26:45.298Z,69.10
2018-12-13T11:29:33.814Z,64.50
2018-12-13T11:32:06.226Z,63.70
2018-12-13T11:34:39.193Z,62.30
2018-12-13T11:37:12.128Z,62.40
2018-12-13T11:39:44.047Z,61.40
2018-12-13T11:42:21.242Z,60.30
2018-12-13T11:44:53.791Z,58.10
2018-12-13T11:47:26.698Z,58.60
2018-12-13T11:49:57.687Z,57.20
2018-12-13T11:52:32.015Z,57.20
2018-12-13T11:55:16.248Z,55.80
2018-12-13T11:57:49.046Z,55.70
2018-12-13T12:00:21.936Z,55.80
2018-12-13T12:02:53.885Z,55.60
2018-12-13T12:05:26.046Z,55.60
2018-12-13T12:07:58.207Z,53.60
2018-12-13T12:10:31.061Z,53.50
2018-12-13T12:13:03.464Z,53.80
2018-12-13T12:15:36.051Z,50.80
2018-12-13T12:18:08.908Z,52.00
2018-12-13T12:20:41.916Z,51.90
2018-12-13T12:23:13.933Z,52.00
2018-12-13T12:25:46.955Z,51.30
2018-12-13T12:28:19.963Z,52.30
2018-12-13T12:30:52.731Z,51.60
2018-12-13T12:33:25.681Z,51.30
2018-12-13T12:35:58.072Z,51.30
2018-12-13T12:38:28.930Z,53.60
2018-12-13T12:41:01.637Z,53.40
2018-12-13T12:43:37.104Z,53.20
2018-12-13T12:46:09.484Z,51.80
2018-12-13T12:48:44.590Z,50.80
2018-12-13T12:51:15.361Z,49.40
2018-12-13T12:53:47.705Z,48.50
2018-12-13T12:56:20.666Z,47.50
2018-12-13T12:58:51.874Z,47.60
2018-12-13T13:01:24.811Z,47.20
2018-12-13T13:03:54.856Z,47.10
2018-12-13T13:06:28.776Z,46.70
2018-12-13T13:08:59.424Z,46.60
2018-12-13T13:11:31.557Z,47.50
2018-12-13T13:14:04.581Z,50.30
2018-12-13T13:16:37.749Z,51.50
2018-12-13T13:19:10.495Z,51.30
2018-12-13T13:21:42.505Z,52.20
2018-12-13T13:24:15.774Z,54.20
2018-12-13T13:26:48.556Z,56.00
2018-12-13T13:29:21.481Z,57.80
2018-12-13T13:31:54.522Z,59.80
2018-12-13T13:34:27.590Z,62.10
2018-12-13T13:36:59.792Z,61.40
2018-12-13T13:39:32.663Z,66.80
2018-12-13T13:42:04.917Z,64.40
2018-12-13T13:44:39.582Z,65.50
2018-12-13T13:47:12.701Z,71.50
2018-12-13T13:49:44.713Z,73.40
2018-12-13T13:52:17.729Z,73.90
2018-12-13T13:54:51.600Z,74.50
2018-12-13T13:57:23.724Z,77.40
2018-12-13T13:59:55.819Z,77.60
2018-12-13T14:02:27.869Z,77.00
2018-12-13T14:04:59.792Z,78.40
2018-12-13T14:07:31.744Z,77.90
2018-12-13T14:10:05.143Z,75.50
2018-12-13T14:12:37.714Z,75.80
2018-12-13T14:15:10.295Z,75.40
2018-12-13T14:17:42.250Z,75.80
2018-12-13T14:20:16.336Z,74.50
2018-12-13T14:22:48.823Z,75.50
2018-12-13T14:25:21.795Z,74.90
2018-12-13T14:28:02.944Z,75.60
2018-12-13T14:30:35.044Z,75.60
2018-12-13T14:33:07.906Z,76.30
2018-12-13T14:35:40.418Z,76.00
2018-12-13T14:38:12.725Z,76.40
2018-12-13T14:40:45.819Z,75.90
2018-12-13T14:43:19.728Z,77.50
2018-12-13T14:45:51.962Z,78.20
2018-12-13T14:48:24.907Z,79.30
2018-12-13T14:50:57.339Z,80.10
2018-12-13T14:53:29.461Z,81.50
2018-12-13T14:56:00.482Z,80.90
2018-12-13T15:01:00.163Z,83.50
2018-12-13T15:03:32.174Z,82.60
2018-12-13T15:06:04.411Z,84.10
2018-12-13T15:08:37.360Z,84.00
2018-12-13T15:11:11.066Z,83.20
2018-12-13T15:13:43.492Z,84.00
2018-12-13T15:16:17.993Z,84.10
2018-12-13T15:18:50.886Z,84.50
2018-12-13T15:21:21.617Z,84.90
2018-12-13T15:23:54.418Z,85.80
2018-12-13T15:26:26.731Z,85.90
2018-12-13T15:28:58.810Z,87.00
2018-12-13T15:31:30.939Z,87.70
2018-12-13T15:34:03.210Z,87.80
2018-12-13T15:36:35.402Z,87.60
2018-12-13T15:39:08.241Z,87.90
2018-12-13T15:41:40.442Z,88.00
2018-12-13T15:44:13.302Z,87.60
2018-12-13T15:46:45.394Z,87.20
2018-12-13T15:49:17.613Z,87.20
2018-12-13T15:51:50.211Z,86.60
2018-12-13T15:54:22.730Z,86.20
2018-12-13T15:56:55.245Z,88.00
2018-12-13T16:01:57.205Z,88.30
2018-12-13T16:04:30.133Z,87.80
2018-12-13T16:07:00.230Z,87.60
2018-12-13T16:09:32.733Z,87.00
2018-12-13T16:12:05.529Z,88.40
2018-12-13T16:14:38.490Z,88.80
2018-12-13T16:17:11.468Z,88.40
2018-12-13T16:19:51.037Z,88.20
2018-12-13T16:22:23.945Z,88.40
2018-12-13T16:24:56.852Z,88.90
2018-12-13T16:27:29.001Z,89.20
2018-12-13T16:30:02.127Z,90.00
2018-12-13T16:32:35.079Z,90.00
2018-12-13T16:35:08.284Z,89.30
2018-12-13T16:37:41.267Z,89.40
2018-12-13T16:40:14.342Z,89.80
2018-12-13T16:42:47.607Z,90.00
2018-12-13T16:45:20.596Z,89.50
2018-12-13T16:47:53.937Z,90.00
2018-12-13T16:50:25.153Z,90.10
2018-12-13T16:52:58.092Z,90.30
2018-12-13T16:55:30.860Z,89.50
2018-12-13T16:58:03.886Z,90.00
2018-12-13T17:00:37.032Z,90.20
2018-12-13T17:05:39.084Z,90.20
2018-12-13T17:08:11.769Z,88.60
2018-12-13T17:10:44.158Z,86.00
2018-12-13T17:13:17.099Z,88.50
2018-12-13T17:15:50.125Z,89.20
2018-12-13T17:18:23.481Z,90.00
2018-12-13T17:20:56.501Z,90.60
2018-12-13T17:23:29.853Z,90.50
2018-12-13T17:26:02.629Z,90.80
2018-12-13T17:28:36.532Z,91.10
2018-12-13T17:31:09.772Z,90.80
2018-12-13T17:33:40.665Z,91.10
2018-12-13T17:36:13.736Z,91.00
2018-12-13T17:38:46.682Z,91.20
2018-12-13T17:41:17.622Z,91.40
2018-12-13T17:43:50.598Z,91.40
2018-12-13T17:46:23.323Z,91.50
2018-12-13T17:48:58.195Z,91.00
2018-12-13T17:51:31.959Z,91.20
2018-12-13T17:54:06.139Z,91.30
2018-12-13T17:56:39.487Z,91.10
2018-12-13T17:59:12.025Z,91.30
2018-12-13T18:01:45.216Z,91.30
2018-12-13T18:04:18.375Z,91.60
2018-12-13T18:06:51.202Z,92.00
2018-12-13T18:09:24.468Z,92.00
2018-12-13T18:11:57.593Z,91.60
2018-12-13T18:14:30.546Z,91.60
2018-12-13T18:17:03.786Z,91.90
2018-12-13T18:19:36.703Z,91.60
2018-12-13T18:22:09.697Z,91.90
2018-12-13T18:24:42.813Z,91.40
2018-12-13T18:27:16.245Z,91.20
2018-12-13T18:29:48.837Z,91.20
2018-12-13T18:32:21.960Z,91.20
2018-12-13T18:34:53.085Z,91.40
2018-12-13T18:37:26.468Z,91.30
2018-12-13T18:39:59.340Z,91.40
2018-12-13T18:42:32.297Z,91.20
2018-12-13T18:45:06.282Z,91.40
2018-12-13T18:47:39.451Z,91.20
2018-12-13T18:50:12.768Z,91.80
2018-12-13T18:52:45.373Z,91.30
2018-12-13T18:55:18.554Z,91.50
2018-12-13T18:57:51.363Z,91.50
2018-12-13T19:00:24.354Z,91.80
2018-12-13T19:02:57.653Z,91.40
2018-12-13T19:07:59.140Z,91.30
2018-12-13T19:10:32.217Z,91.50
2018-12-13T19:13:04.655Z,90.90
2018-12-13T19:15:39.717Z,91.20
2018-12-13T19:18:12.387Z,91.30
2018-12-13T19:20:45.820Z,91.50
2018-12-13T19:23:18.885Z,91.60
2018-12-13T19:25:49.816Z,91.40
2018-12-13T19:28:23.177Z,91.10
2018-12-13T19:30:58.483Z,91.50
2018-12-13T19:33:32.670Z,90.90
2018-12-13T19:36:04.341Z,90.70
2018-12-13T19:38:37.698Z,90.90
2018-12-13T19:41:10.917Z,90.60
2018-12-13T19:43:44.109Z,90.80
2018-12-13T19:46:16.884Z,91.10
2018-12-13T19:48:49.539Z,90.70
2018-12-13T19:51:23.977Z,91.00
2018-12-13T19:53:57.766Z,90.10
2018-12-13T19:56:28.805Z,90.20
2018-12-13T19:59:01.736Z,90.20
2018-12-13T20:01:34.882Z,90.00
2018-12-13T20:04:07.708Z,90.20
2018-12-13T20:06:40.672Z,90.40
2018-12-13T20:09:13.603Z,90.20
2018-12-13T20:11:44.463Z,90.00
2018-12-13T20:14:18.469Z,90.00
2018-12-13T20:16:52.278Z,90.30
2018-12-13T20:19:25.735Z,90.30
2018-12-13T20:21:58.792Z,90.40
2018-12-13T20:24:32.627Z,90.30
2018-12-13T20:27:05.171Z,90.10
2018-12-13T20:29:38.389Z,90.10
2018-12-13T20:32:11.237Z,90.50
2018-12-13T20:34:45.542Z,90.40
2018-12-13T20:37:18.371Z,90.60
2018-12-13T20:39:51.568Z,90.30
2018-12-13T20:42:24.410Z,90.00
2018-12-13T20:44:56.820Z,90.20
2018-12-13T20:47:29.927Z,90.50
2018-12-13T20:50:03.186Z,90.60
2018-12-13T20:52:36.253Z,90.40
2018-12-13T20:55:09.343Z,90.50
2018-12-13T20:57:42.032Z,90.40
2018-12-13T21:00:15.014Z,90.60
2018-12-13T21:02:48.185Z,90.30
2018-12-13T21:05:19.090Z,90.40
2018-12-13T21:07:54.392Z,90.40
2018-12-13T21:10:29.324Z,90.10
2018-12-13T21:13:02.354Z,90.10
2018-12-13T21:15:35.437Z,90.00
2018-12-13T21:18:08.469Z,90.10
2018-12-13T21:20:41.408Z,89.60
2018-12-13T21:23:14.570Z,89.10
2018-12-13T21:25:45.465Z,89.90
2018-12-13T21:28:18.636Z,89.60
2018-12-13T21:30:51.817Z,89.60
2018-12-13T21:33:24.995Z,89.60
2018-12-13T21:35:56.145Z,89.80
2018-12-13T21:38:29.070Z,88.60
2018-12-13T21:41:02.192Z,88.90
2018-12-13T21:43:34.664Z,87.80
2018-12-13T21:46:06.961Z,87.60
2018-12-13T21:48:39.243Z,88.10
2018-12-13T21:51:12.243Z,86.00
2018-12-13T21:53:44.627Z,85.70
2018-12-13T21:56:17.353Z,86.90
2018-12-13T21:58:50.194Z,85.80
2018-12-13T22:01:23.110Z,85.30
2018-12-13T22:03:58.402Z,86.00
2018-12-13T22:06:28.833Z,86.70
2018-12-13T22:09:01.095Z,87.00
2018-12-13T22:11:33.100Z,87.30
2018-12-13T22:14:05.764Z,87.00
2018-12-13T22:16:38.329Z,86.60
2018-12-13T22:19:10.230Z,85.90
2018-12-13T22:21:42.310Z,87.00
2018-12-13T22:24:14.517Z,86.40
2018-12-13T22:26:44.674Z,87.20
2018-12-13T22:29:16.758Z,87.80
2018-12-13T22:31:48.694Z,87.80
2018-12-13T22:34:27.564Z,87.60
2018-12-13T22:36:59.956Z,87.50
2018-12-13T22:39:32.640Z,86.80
2018-12-13T22:42:04.784Z,87.30
2018-12-13T22:44:36.758Z,87.90
2018-12-13T22:47:09.094Z,86.90
2018-12-13T22:49:42.196Z,86.30
2018-12-13T22:52:14.921Z,86.50
2018-12-13T22:54:46.944Z,87.80
2018-12-13T22:57:19.029Z,86.30
2018-12-13T22:59:50.955Z,87.30
2018-12-13T23:02:23.458Z,87.00
2018-12-13T23:04:55.446Z,87.30
2018-12-13T23:07:27.372Z,87.70
2018-12-13T23:09:59.752Z,87.20
2018-12-13T23:12:31.787Z,87.70
2018-12-13T23:15:05.555Z,88.20
2018-12-13T23:17:37.921Z,87.80
2018-12-13T23:20:10.103Z,87.00
2018-12-13T23:22:42.051Z,86.90
2018-12-13T23:25:16.313Z,86.10
2018-12-13T23:27:49.528Z,86.40
2018-12-13T23:30:25.454Z,86.90
2018-12-13T23:32:58.155Z,86.00
2018-12-13T23:35:30.119Z,86.10
2018-12-13T23:38:02.164Z,85.40
2018-12-13T23:40:34.100Z,86.00
2018-12-13T23:43:06.327Z,86.00
2018-12-13T23:45:39.727Z,86.40
2018-12-13T23:48:11.660Z,86.40
2018-12-13T23:50:43.664Z,86.20
2018-12-13T23:53:15.457Z,85.80
2018-12-13T23:55:47.413Z,86.00
2018-12-13T23:58:19.379Z,85.70
